sensor_id;sensor_type;location;lat;lon;timestamp;P1;durP1;ratioP1;P2;durP2;ratioP2
44750;SDS011;30477;48.224;11.470;2023-03-01T00:01:55;31.67;;;19.90;;
44750;SDS011;30477;48.224;11.470;2023-03-01T00:04:20;33.23;;;20.67;;
44750;SDS011;30477;48.224;11.470;2023-03-01T00:06:46;34.40;;;21.77;;
44750;SDS011;30477;48.224;11.470;2023-03-01T00:09:12;32.42;;;20.73;;
44750;SDS011;30477;48.224;11.470;2023-03-01T00:14:04;31.65;;;19.40;;
44750;SDS011;30477;48.224;11.470;2023-03-01T00:16:33;31.60;;;20.45;;
44750;SDS011;30477;48.224;11.470;2023-03-01T00:19:01;29.85;;;19.05;;
44750;SDS011;30477;48.224;11.470;2023-03-01T00:21:27;32.05;;;19.73;;
44750;SDS011;30477;48.224;11.470;2023-03-01T00:23:53;32.75;;;20.05;;
44750;SDS011;30477;48.224;11.470;2023-03-01T00:26:19;35.70;;;20.40;;
44750;SDS011;30477;48.224;11.470;2023-03-01T00:28:46;34.60;;;20.15;;
44750;SDS011;30477;48.224;11.470;2023-03-01T00:31:13;34.80;;;20.97;;
44750;SDS011;30477;48.224;11.470;2023-03-01T00:33:41;34.92;;;20.65;;
44750;SDS011;30477;48.224;11.470;2023-03-01T00:36:07;31.42;;;20.67;;
44750;SDS011;30477;48.224;11.470;2023-03-01T00:38:40;32.97;;;20.23;;
44750;SDS011;30477;48.224;11.470;2023-03-01T00:41:12;32.97;;;21.20;;
44750;SDS011;30477;48.224;11.470;2023-03-01T00:43:39;33.28;;;19.35;;
44750;SDS011;30477;48.224;11.470;2023-03-01T00:46:06;30.33;;;20.83;;
44750;SDS011;30477;48.224;11.470;2023-03-01T00:48:34;32.25;;;20.80;;
44750;SDS011;30477;48.224;11.470;2023-03-01T00:51:19;33.00;;;20.40;;
44750;SDS011;30477;48.224;11.470;2023-03-01T00:53:46;33.25;;;20.38;;
44750;SDS011;30477;48.224;11.470;2023-03-01T00:56:13;31.20;;;19.95;;
44750;SDS011;30477;48.224;11.470;2023-03-01T00:58:39;32.20;;;20.50;;
44750;SDS011;30477;48.224;11.470;2023-03-01T01:01:09;31.35;;;21.00;;
44750;SDS011;30477;48.224;11.470;2023-03-01T01:03:49;32.60;;;20.88;;
44750;SDS011;30477;48.224;11.470;2023-03-01T01:06:23;31.52;;;20.25;;
44750;SDS011;30477;48.224;11.470;2023-03-01T01:08:51;35.42;;;21.58;;
44750;SDS011;30477;48.224;11.470;2023-03-01T01:11:18;30.88;;;19.27;;
44750;SDS011;30477;48.224;11.470;2023-03-01T01:13:45;35.58;;;21.33;;
44750;SDS011;30477;48.224;11.470;2023-03-01T01:16:11;36.13;;;21.13;;
44750;SDS011;30477;48.224;11.470;2023-03-01T01:21:04;31.35;;;19.25;;
44750;SDS011;30477;48.224;11.470;2023-03-01T01:23:33;33.42;;;20.35;;
44750;SDS011;30477;48.224;11.470;2023-03-01T01:26:13;31.90;;;20.20;;
44750;SDS011;30477;48.224;11.470;2023-03-01T01:28:41;33.65;;;20.85;;
44750;SDS011;30477;48.224;11.470;2023-03-01T01:31:06;32.33;;;20.70;;
44750;SDS011;30477;48.224;11.470;2023-03-01T01:33:32;31.10;;;19.98;;
44750;SDS011;30477;48.224;11.470;2023-03-01T01:35:58;33.33;;;19.92;;
44750;SDS011;30477;48.224;11.470;2023-03-01T01:38:24;30.77;;;19.90;;
44750;SDS011;30477;48.224;11.470;2023-03-01T01:40:49;31.10;;;19.43;;
44750;SDS011;30477;48.224;11.470;2023-03-01T01:46:15;28.98;;;18.60;;
44750;SDS011;30477;48.224;11.470;2023-03-01T01:48:48;30.15;;;20.42;;
44750;SDS011;30477;48.224;11.470;2023-03-01T01:51:22;32.35;;;20.40;;
44750;SDS011;30477;48.224;11.470;2023-03-01T01:53:53;34.58;;;20.65;;
44750;SDS011;30477;48.224;11.470;2023-03-01T01:56:23;30.40;;;20.00;;
44750;SDS011;30477;48.224;11.470;2023-03-01T01:58:51;32.85;;;21.23;;
44750;SDS011;30477;48.224;11.470;2023-03-01T02:01:17;30.60;;;19.92;;
44750;SDS011;30477;48.224;11.470;2023-03-01T02:03:43;33.53;;;21.13;;
44750;SDS011;30477;48.224;11.470;2023-03-01T02:08:40;35.47;;;21.08;;
44750;SDS011;30477;48.224;11.470;2023-03-01T02:11:08;34.35;;;20.40;;
44750;SDS011;30477;48.224;11.470;2023-03-01T02:13:35;35.20;;;20.35;;
44750;SDS011;30477;48.224;11.470;2023-03-01T02:16:04;35.13;;;20.83;;
44750;SDS011;30477;48.224;11.470;2023-03-01T02:18:33;34.95;;;20.88;;
44750;SDS011;30477;48.224;11.470;2023-03-01T02:23:30;34.13;;;20.55;;
44750;SDS011;30477;48.224;11.470;2023-03-01T02:28:50;32.35;;;20.58;;
44750;SDS011;30477;48.224;11.470;2023-03-01T02:31:17;33.27;;;21.13;;
44750;SDS011;30477;48.224;11.470;2023-03-01T02:34:03;32.85;;;20.83;;
44750;SDS011;30477;48.224;11.470;2023-03-01T02:36:31;32.63;;;20.73;;
44750;SDS011;30477;48.224;11.470;2023-03-01T02:39:03;33.67;;;21.63;;
44750;SDS011;30477;48.224;11.470;2023-03-01T02:41:32;30.60;;;19.75;;
44750;SDS011;30477;48.224;11.470;2023-03-01T02:44:02;32.97;;;20.10;;
44750;SDS011;30477;48.224;11.470;2023-03-01T02:46:28;33.83;;;20.67;;
44750;SDS011;30477;48.224;11.470;2023-03-01T02:48:55;32.88;;;20.92;;
44750;SDS011;30477;48.224;11.470;2023-03-01T02:51:24;32.88;;;20.10;;
44750;SDS011;30477;48.224;11.470;2023-03-01T02:54:25;31.30;;;20.30;;
44750;SDS011;30477;48.224;11.470;2023-03-01T02:56:56;30.88;;;20.25;;
44750;SDS011;30477;48.224;11.470;2023-03-01T02:59:24;33.35;;;20.45;;
44750;SDS011;30477;48.224;11.470;2023-03-01T03:01:52;33.47;;;20.10;;
44750;SDS011;30477;48.224;11.470;2023-03-01T03:04:18;32.87;;;20.53;;
44750;SDS011;30477;48.224;11.470;2023-03-01T03:06:45;35.33;;;22.33;;
44750;SDS011;30477;48.224;11.470;2023-03-01T03:11:36;32.50;;;20.05;;
44750;SDS011;30477;48.224;11.470;2023-03-01T03:14:02;33.87;;;20.97;;
44750;SDS011;30477;48.224;11.470;2023-03-01T03:16:27;30.83;;;20.25;;
44750;SDS011;30477;48.224;11.470;2023-03-01T03:18:54;32.55;;;19.98;;
44750;SDS011;30477;48.224;11.470;2023-03-01T03:21:20;35.73;;;21.97;;
44750;SDS011;30477;48.224;11.470;2023-03-01T03:23:45;31.90;;;20.43;;
44750;SDS011;30477;48.224;11.470;2023-03-01T03:26:10;32.37;;;19.23;;
44750;SDS011;30477;48.224;11.470;2023-03-01T03:28:38;32.95;;;20.65;;
44750;SDS011;30477;48.224;11.470;2023-03-01T03:31:05;32.55;;;20.88;;
44750;SDS011;30477;48.224;11.470;2023-03-01T03:33:32;33.25;;;21.70;;
44750;SDS011;30477;48.224;11.470;2023-03-01T03:35:58;34.30;;;21.33;;
44750;SDS011;30477;48.224;11.470;2023-03-01T03:38:23;31.08;;;20.55;;
44750;SDS011;30477;48.224;11.470;2023-03-01T03:40:50;34.13;;;20.80;;
44750;SDS011;30477;48.224;11.470;2023-03-01T03:43:21;33.03;;;20.88;;
44750;SDS011;30477;48.224;11.470;2023-03-01T03:45:48;30.70;;;19.25;;
44750;SDS011;30477;48.224;11.470;2023-03-01T03:48:15;33.45;;;21.42;;
44750;SDS011;30477;48.224;11.470;2023-03-01T03:50:41;33.03;;;20.17;;
44750;SDS011;30477;48.224;11.470;2023-03-01T03:53:08;34.67;;;19.98;;
44750;SDS011;30477;48.224;11.470;2023-03-01T03:55:35;33.20;;;20.38;;
44750;SDS011;30477;48.224;11.470;2023-03-01T03:58:04;32.28;;;20.08;;
44750;SDS011;30477;48.224;11.470;2023-03-01T04:00:37;33.17;;;21.25;;
44750;SDS011;30477;48.224;11.470;2023-03-01T04:03:05;32.28;;;20.73;;
44750;SDS011;30477;48.224;11.470;2023-03-01T04:05:30;33.70;;;20.60;;
44750;SDS011;30477;48.224;11.470;2023-03-01T04:07:56;32.42;;;20.48;;
44750;SDS011;30477;48.224;11.470;2023-03-01T04:10:29;29.63;;;19.17;;
44750;SDS011;30477;48.224;11.470;2023-03-01T04:12:56;32.13;;;19.88;;
44750;SDS011;30477;48.224;11.470;2023-03-01T04:15:23;31.33;;;21.00;;
44750;SDS011;30477;48.224;11.470;2023-03-01T04:17:49;32.17;;;19.52;;
44750;SDS011;30477;48.224;11.470;2023-03-01T04:20:18;34.17;;;21.17;;
44750;SDS011;30477;48.224;11.470;2023-03-01T04:22:52;32.25;;;19.85;;
44750;SDS011;30477;48.224;11.470;2023-03-01T04:25:33;31.23;;;20.05;;
44750;SDS011;30477;48.224;11.470;2023-03-01T04:27:58;32.77;;;19.70;;
44750;SDS011;30477;48.224;11.470;2023-03-01T04:30:24;32.90;;;20.10;;
44750;SDS011;30477;48.224;11.470;2023-03-01T04:32:50;34.15;;;21.35;;
44750;SDS011;30477;48.224;11.470;2023-03-01T04:35:15;35.40;;;20.40;;
44750;SDS011;30477;48.224;11.470;2023-03-01T04:37:41;32.53;;;20.57;;
44750;SDS011;30477;48.224;11.470;2023-03-01T04:40:06;33.28;;;20.05;;
44750;SDS011;30477;48.224;11.470;2023-03-01T04:42:38;31.65;;;19.00;;
44750;SDS011;30477;48.224;11.470;2023-03-01T04:45:03;36.40;;;20.58;;
44750;SDS011;30477;48.224;11.470;2023-03-01T04:47:37;33.83;;;20.65;;
44750;SDS011;30477;48.224;11.470;2023-03-01T04:50:06;31.75;;;20.05;;
44750;SDS011;30477;48.224;11.470;2023-03-01T04:52:32;32.22;;;21.23;;
44750;SDS011;30477;48.224;11.470;2023-03-01T04:54:58;32.37;;;20.23;;
44750;SDS011;30477;48.224;11.470;2023-03-01T04:57:23;35.30;;;21.23;;
44750;SDS011;30477;48.224;11.470;2023-03-01T04:59:48;35.23;;;22.03;;
44750;SDS011;30477;48.224;11.470;2023-03-01T05:02:14;32.70;;;20.40;;
44750;SDS011;30477;48.224;11.470;2023-03-01T05:04:39;33.80;;;20.07;;
44750;SDS011;30477;48.224;11.470;2023-03-01T05:07:04;33.33;;;21.13;;
44750;SDS011;30477;48.224;11.470;2023-03-01T05:09:30;35.00;;;21.13;;
44750;SDS011;30477;48.224;11.470;2023-03-01T05:11:55;34.47;;;21.43;;
44750;SDS011;30477;48.224;11.470;2023-03-01T05:14:20;39.63;;;21.97;;
44750;SDS011;30477;48.224;11.470;2023-03-01T05:16:46;34.67;;;20.98;;
44750;SDS011;30477;48.224;11.470;2023-03-01T05:19:12;38.43;;;22.83;;
44750;SDS011;30477;48.224;11.470;2023-03-01T05:21:40;33.17;;;21.70;;
44750;SDS011;30477;48.224;11.470;2023-03-01T05:24:26;32.78;;;20.60;;
44750;SDS011;30477;48.224;11.470;2023-03-01T05:26:52;33.15;;;20.70;;
44750;SDS011;30477;48.224;11.470;2023-03-01T05:29:18;37.97;;;22.10;;
44750;SDS011;30477;48.224;11.470;2023-03-01T05:31:50;37.00;;;22.08;;
44750;SDS011;30477;48.224;11.470;2023-03-01T05:34:17;35.20;;;21.27;;
44750;SDS011;30477;48.224;11.470;2023-03-01T05:36:42;35.37;;;22.07;;
44750;SDS011;30477;48.224;11.470;2023-03-01T05:39:07;37.80;;;21.87;;
44750;SDS011;30477;48.224;11.470;2023-03-01T05:41:33;31.43;;;21.00;;
44750;SDS011;30477;48.224;11.470;2023-03-01T05:43:58;34.00;;;21.13;;
44750;SDS011;30477;48.224;11.470;2023-03-01T05:46:23;37.13;;;22.87;;
44750;SDS011;30477;48.224;11.470;2023-03-01T05:48:49;36.47;;;21.80;;
44750;SDS011;30477;48.224;11.470;2023-03-01T05:51:14;35.90;;;22.20;;
44750;SDS011;30477;48.224;11.470;2023-03-01T05:53:40;33.70;;;20.50;;
44750;SDS011;30477;48.224;11.470;2023-03-01T05:56:05;33.43;;;20.60;;
44750;SDS011;30477;48.224;11.470;2023-03-01T05:58:31;36.97;;;21.55;;
44750;SDS011;30477;48.224;11.470;2023-03-01T06:00:56;35.90;;;22.33;;
44750;SDS011;30477;48.224;11.470;2023-03-01T06:03:22;36.55;;;21.98;;
44750;SDS011;30477;48.224;11.470;2023-03-01T06:05:48;37.60;;;22.63;;
44750;SDS011;30477;48.224;11.470;2023-03-01T06:08:13;40.03;;;22.10;;
44750;SDS011;30477;48.224;11.470;2023-03-01T06:10:38;37.80;;;22.13;;
44750;SDS011;30477;48.224;11.470;2023-03-01T06:13:04;35.20;;;21.48;;
44750;SDS011;30477;48.224;11.470;2023-03-01T06:15:30;39.92;;;22.25;;
44750;SDS011;30477;48.224;11.470;2023-03-01T06:17:55;38.70;;;22.13;;
44750;SDS011;30477;48.224;11.470;2023-03-01T06:20:23;36.85;;;21.15;;
44750;SDS011;30477;48.224;11.470;2023-03-01T06:22:49;37.60;;;21.98;;
44750;SDS011;30477;48.224;11.470;2023-03-01T06:25:16;34.80;;;21.00;;
44750;SDS011;30477;48.224;11.470;2023-03-01T06:27:49;41.00;;;22.17;;
44750;SDS011;30477;48.224;11.470;2023-03-01T06:30:15;34.17;;;21.43;;
44750;SDS011;30477;48.224;11.470;2023-03-01T06:32:42;38.13;;;22.17;;
44750;SDS011;30477;48.224;11.470;2023-03-01T06:35:11;35.65;;;22.27;;
44750;SDS011;30477;48.224;11.470;2023-03-01T06:37:39;35.35;;;21.58;;
44750;SDS011;30477;48.224;11.470;2023-03-01T06:40:05;33.17;;;21.65;;
44750;SDS011;30477;48.224;11.470;2023-03-01T06:42:33;33.40;;;20.52;;
44750;SDS011;30477;48.224;11.470;2023-03-01T06:45:03;36.65;;;22.08;;
44750;SDS011;30477;48.224;11.470;2023-03-01T06:47:30;35.83;;;22.00;;
44750;SDS011;30477;48.224;11.470;2023-03-01T06:49:56;35.75;;;21.77;;
44750;SDS011;30477;48.224;11.470;2023-03-01T06:52:21;32.63;;;20.67;;
44750;SDS011;30477;48.224;11.470;2023-03-01T06:54:47;35.97;;;20.15;;
44750;SDS011;30477;48.224;11.470;2023-03-01T06:57:12;38.10;;;22.33;;
44750;SDS011;30477;48.224;11.470;2023-03-01T06:59:37;38.27;;;23.90;;
44750;SDS011;30477;48.224;11.470;2023-03-01T07:02:03;41.13;;;21.30;;
44750;SDS011;30477;48.224;11.470;2023-03-01T07:04:28;37.00;;;22.23;;
44750;SDS011;30477;48.224;11.470;2023-03-01T07:06:55;35.67;;;20.95;;
44750;SDS011;30477;48.224;11.470;2023-03-01T07:09:23;39.73;;;21.37;;
44750;SDS011;30477;48.224;11.470;2023-03-01T07:11:49;34.22;;;20.52;;
44750;SDS011;30477;48.224;11.470;2023-03-01T07:14:15;33.03;;;20.77;;
44750;SDS011;30477;48.224;11.470;2023-03-01T07:16:41;34.78;;;21.88;;
44750;SDS011;30477;48.224;11.470;2023-03-01T07:19:06;34.87;;;21.07;;
44750;SDS011;30477;48.224;11.470;2023-03-01T07:21:31;35.93;;;21.23;;
44750;SDS011;30477;48.224;11.470;2023-03-01T07:23:57;37.67;;;22.87;;
44750;SDS011;30477;48.224;11.470;2023-03-01T07:26:22;34.40;;;21.73;;
44750;SDS011;30477;48.224;11.470;2023-03-01T07:28:48;37.33;;;21.38;;
44750;SDS011;30477;48.224;11.470;2023-03-01T07:31:13;39.50;;;22.30;;
44750;SDS011;30477;48.224;11.470;2023-03-01T07:33:39;39.22;;;22.05;;
44750;SDS011;30477;48.224;11.470;2023-03-01T07:36:05;38.03;;;21.77;;
44750;SDS011;30477;48.224;11.470;2023-03-01T07:38:31;34.90;;;20.85;;
44750;SDS011;30477;48.224;11.470;2023-03-01T07:41:00;39.03;;;21.63;;
44750;SDS011;30477;48.224;11.470;2023-03-01T07:43:27;33.58;;;20.52;;
44750;SDS011;30477;48.224;11.470;2023-03-01T07:45:59;35.00;;;21.38;;
44750;SDS011;30477;48.224;11.470;2023-03-01T07:48:25;37.70;;;22.40;;
44750;SDS011;30477;48.224;11.470;2023-03-01T07:50:51;36.30;;;21.70;;
44750;SDS011;30477;48.224;11.470;2023-03-01T07:53:16;35.73;;;20.87;;
44750;SDS011;30477;48.224;11.470;2023-03-01T07:55:42;40.55;;;21.90;;
44750;SDS011;30477;48.224;11.470;2023-03-01T07:58:07;40.10;;;20.70;;
44750;SDS011;30477;48.224;11.470;2023-03-01T08:00:32;39.23;;;22.70;;
44750;SDS011;30477;48.224;11.470;2023-03-01T08:02:58;35.37;;;21.17;;
44750;SDS011;30477;48.224;11.470;2023-03-01T08:05:25;37.53;;;22.55;;
44750;SDS011;30477;48.224;11.470;2023-03-01T08:07:51;38.80;;;20.97;;
44750;SDS011;30477;48.224;11.470;2023-03-01T08:10:16;35.77;;;22.00;;
44750;SDS011;30477;48.224;11.470;2023-03-01T08:12:42;38.75;;;23.00;;
44750;SDS011;30477;48.224;11.470;2023-03-01T08:15:07;36.50;;;21.10;;
44750;SDS011;30477;48.224;11.470;2023-03-01T08:17:33;35.63;;;21.10;;
44750;SDS011;30477;48.224;11.470;2023-03-01T08:19:59;39.40;;;22.23;;
44750;SDS011;30477;48.224;11.470;2023-03-01T08:22:24;39.80;;;22.50;;
44750;SDS011;30477;48.224;11.470;2023-03-01T08:24:49;37.93;;;22.00;;
44750;SDS011;30477;48.224;11.470;2023-03-01T08:27:15;37.53;;;21.53;;
44750;SDS011;30477;48.224;11.470;2023-03-01T08:29:41;37.10;;;21.70;;
44750;SDS011;30477;48.224;11.470;2023-03-01T08:32:07;39.03;;;22.90;;
44750;SDS011;30477;48.224;11.470;2023-03-01T08:34:32;39.70;;;23.03;;
44750;SDS011;30477;48.224;11.470;2023-03-01T08:37:00;37.08;;;21.92;;
44750;SDS011;30477;48.224;11.470;2023-03-01T08:39:26;38.42;;;22.48;;
44750;SDS011;30477;48.224;11.470;2023-03-01T08:41:51;39.15;;;21.23;;
44750;SDS011;30477;48.224;11.470;2023-03-01T08:44:17;40.83;;;23.30;;
44750;SDS011;30477;48.224;11.470;2023-03-01T08:46:43;37.97;;;21.90;;
44750;SDS011;30477;48.224;11.470;2023-03-01T08:49:15;43.33;;;22.48;;
44750;SDS011;30477;48.224;11.470;2023-03-01T08:51:42;40.17;;;23.00;;
44750;SDS011;30477;48.224;11.470;2023-03-01T08:54:18;35.17;;;21.95;;
44750;SDS011;30477;48.224;11.470;2023-03-01T08:56:45;32.20;;;18.43;;
44750;SDS011;30477;48.224;11.470;2023-03-01T08:59:10;38.33;;;22.27;;
44750;SDS011;30477;48.224;11.470;2023-03-01T09:01:37;37.72;;;22.55;;
44750;SDS011;30477;48.224;11.470;2023-03-01T09:04:03;39.22;;;22.90;;
44750;SDS011;30477;48.224;11.470;2023-03-01T09:08:58;39.45;;;23.10;;
44750;SDS011;30477;48.224;11.470;2023-03-01T09:11:24;36.63;;;22.13;;
44750;SDS011;30477;48.224;11.470;2023-03-01T09:13:49;38.80;;;21.10;;
44750;SDS011;30477;48.224;11.470;2023-03-01T09:16:16;41.97;;;22.83;;
44750;SDS011;30477;48.224;11.470;2023-03-01T09:18:44;40.13;;;22.83;;
44750;SDS011;30477;48.224;11.470;2023-03-01T09:23:37;42.65;;;23.90;;
44750;SDS011;30477;48.224;11.470;2023-03-01T09:26:15;35.95;;;22.70;;
44750;SDS011;30477;48.224;11.470;2023-03-01T09:28:44;37.60;;;21.30;;
44750;SDS011;30477;48.224;11.470;2023-03-01T09:31:11;38.97;;;22.38;;
44750;SDS011;30477;48.224;11.470;2023-03-01T09:33:40;37.45;;;22.00;;
44750;SDS011;30477;48.224;11.470;2023-03-01T09:36:10;39.72;;;22.90;;
44750;SDS011;30477;48.224;11.470;2023-03-01T09:38:37;41.50;;;22.88;;
44750;SDS011;30477;48.224;11.470;2023-03-01T09:41:08;42.53;;;23.73;;
44750;SDS011;30477;48.224;11.470;2023-03-01T09:43:44;39.42;;;22.77;;
44750;SDS011;30477;48.224;11.470;2023-03-01T09:46:18;40.78;;;23.15;;
44750;SDS011;30477;48.224;11.470;2023-03-01T09:48:50;40.00;;;23.17;;
44750;SDS011;30477;48.224;11.470;2023-03-01T09:51:26;40.53;;;22.55;;
44750;SDS011;30477;48.224;11.470;2023-03-01T09:53:54;39.00;;;22.63;;
44750;SDS011;30477;48.224;11.470;2023-03-01T09:56:24;38.55;;;23.52;;
44750;SDS011;30477;48.224;11.470;2023-03-01T10:07:43;30.65;;;17.73;;
44750;SDS011;30477;48.224;11.470;2023-03-01T10:11:01;42.00;;;23.52;;
44750;SDS011;30477;48.224;11.470;2023-03-01T10:15:54;38.95;;;22.98;;
44750;SDS011;30477;48.224;11.470;2023-03-01T10:18:29;38.92;;;23.35;;
44750;SDS011;30477;48.224;11.470;2023-03-01T10:23:45;43.88;;;25.52;;
44750;SDS011;30477;48.224;11.470;2023-03-01T10:31:37;36.55;;;20.83;;
44750;SDS011;30477;48.224;11.470;2023-03-01T10:34:36;41.28;;;24.92;;
44750;SDS011;30477;48.224;11.470;2023-03-01T10:36:58;42.45;;;25.35;;
44750;SDS011;30477;48.224;11.470;2023-03-01T10:39:33;42.92;;;25.13;;
44750;SDS011;30477;48.224;11.470;2023-03-01T10:42:00;40.10;;;24.07;;
44750;SDS011;30477;48.224;11.470;2023-03-01T10:44:38;42.72;;;25.30;;
44750;SDS011;30477;48.224;11.470;2023-03-01T10:49:54;42.40;;;25.38;;
44750;SDS011;30477;48.224;11.470;2023-03-01T10:57:41;41.22;;;24.98;;
44750;SDS011;30477;48.224;11.470;2023-03-01T11:02:39;40.65;;;24.85;;
44750;SDS011;30477;48.224;11.470;2023-03-01T11:07:46;42.22;;;24.17;;
44750;SDS011;30477;48.224;11.470;2023-03-01T11:10:22;35.83;;;23.05;;
44750;SDS011;30477;48.224;11.470;2023-03-01T11:12:50;40.22;;;23.98;;
44750;SDS011;30477;48.224;11.470;2023-03-01T11:15:30;43.72;;;25.52;;
44750;SDS011;30477;48.224;11.470;2023-03-01T11:17:56;37.97;;;24.65;;
44750;SDS011;30477;48.224;11.470;2023-03-01T11:20:25;38.55;;;24.13;;
44750;SDS011;30477;48.224;11.470;2023-03-01T11:25:39;42.13;;;24.88;;
44750;SDS011;30477;48.224;11.470;2023-03-01T11:28:07;41.95;;;24.20;;
44750;SDS011;30477;48.224;11.470;2023-03-01T11:36:01;35.90;;;23.92;;
44750;SDS011;30477;48.224;11.470;2023-03-01T11:38:32;38.13;;;23.65;;
44750;SDS011;30477;48.224;11.470;2023-03-01T11:41:05;35.60;;;22.88;;
44750;SDS011;30477;48.224;11.470;2023-03-01T11:54:49;38.35;;;24.90;;
44750;SDS011;30477;48.224;11.470;2023-03-01T12:01:06;37.63;;;23.55;;
44750;SDS011;30477;48.224;11.470;2023-03-01T12:06:03;37.95;;;22.73;;
44750;SDS011;30477;48.224;11.470;2023-03-01T12:08:47;36.70;;;23.27;;
44750;SDS011;30477;48.224;11.470;2023-03-01T12:14:08;41.22;;;23.85;;
44750;SDS011;30477;48.224;11.470;2023-03-01T12:19:58;38.75;;;24.55;;
44750;SDS011;30477;48.224;11.470;2023-03-01T12:33:38;36.58;;;22.83;;
44750;SDS011;30477;48.224;11.470;2023-03-01T12:38:57;38.50;;;24.30;;
44750;SDS011;30477;48.224;11.470;2023-03-01T12:47:23;39.83;;;24.80;;
44750;SDS011;30477;48.224;11.470;2023-03-01T12:50:02;39.13;;;23.98;;
44750;SDS011;30477;48.224;11.470;2023-03-01T12:55:26;34.60;;;22.27;;
44750;SDS011;30477;48.224;11.470;2023-03-01T13:09:55;38.20;;;23.75;;
44750;SDS011;30477;48.224;11.470;2023-03-01T13:23:10;37.67;;;24.05;;
44750;SDS011;30477;48.224;11.470;2023-03-01T13:31:06;35.55;;;23.83;;
44750;SDS011;30477;48.224;11.470;2023-03-01T13:33:37;36.00;;;24.08;;
44750;SDS011;30477;48.224;11.470;2023-03-01T13:36:05;36.53;;;23.77;;
44750;SDS011;30477;48.224;11.470;2023-03-01T13:46:46;39.38;;;23.85;;
44750;SDS011;30477;48.224;11.470;2023-03-01T13:49:14;39.03;;;24.90;;
44750;SDS011;30477;48.224;11.470;2023-03-01T13:51:42;34.45;;;22.42;;
44750;SDS011;30477;48.224;11.470;2023-03-01T13:54:12;36.50;;;23.23;;
44750;SDS011;30477;48.224;11.470;2023-03-01T13:56:39;36.80;;;23.48;;
44750;SDS011;30477;48.224;11.470;2023-03-01T13:59:06;36.97;;;24.30;;
44750;SDS011;30477;48.224;11.470;2023-03-01T14:01:38;40.13;;;24.77;;
44750;SDS011;30477;48.224;11.470;2023-03-01T14:04:21;35.40;;;24.35;;
44750;SDS011;30477;48.224;11.470;2023-03-01T14:06:50;37.38;;;24.05;;
44750;SDS011;30477;48.224;11.470;2023-03-01T14:09:17;38.97;;;24.33;;
44750;SDS011;30477;48.224;11.470;2023-03-01T14:17:10;34.22;;;21.65;;
44750;SDS011;30477;48.224;11.470;2023-03-01T14:20:02;35.08;;;22.50;;
44750;SDS011;30477;48.224;11.470;2023-03-01T14:22:36;34.95;;;22.17;;
44750;SDS011;30477;48.224;11.470;2023-03-01T14:25:03;33.75;;;22.52;;
44750;SDS011;30477;48.224;11.470;2023-03-01T14:27:38;39.67;;;23.90;;
44750;SDS011;30477;48.224;11.470;2023-03-01T14:30:11;36.38;;;22.52;;
44750;SDS011;30477;48.224;11.470;2023-03-01T14:32:42;33.80;;;20.30;;
44750;SDS011;30477;48.224;11.470;2023-03-01T14:35:24;37.60;;;21.90;;
44750;SDS011;30477;48.224;11.470;2023-03-01T14:37:54;24.50;;;16.08;;
44750;SDS011;30477;48.224;11.470;2023-03-01T14:40:22;34.40;;;21.07;;
44750;SDS011;30477;48.224;11.470;2023-03-01T14:42:51;33.40;;;21.65;;
44750;SDS011;30477;48.224;11.470;2023-03-01T14:45:18;32.55;;;21.02;;
44750;SDS011;30477;48.224;11.470;2023-03-01T14:47:43;32.70;;;20.83;;
44750;SDS011;30477;48.224;11.470;2023-03-01T14:50:15;32.97;;;22.05;;
44750;SDS011;30477;48.224;11.470;2023-03-01T14:52:48;35.38;;;22.13;;
44750;SDS011;30477;48.224;11.470;2023-03-01T14:55:50;33.38;;;21.75;;
44750;SDS011;30477;48.224;11.470;2023-03-01T14:58:15;31.92;;;21.52;;
44750;SDS011;30477;48.224;11.470;2023-03-01T15:01:04;32.05;;;22.27;;
44750;SDS011;30477;48.224;11.470;2023-03-01T15:06:22;35.47;;;21.95;;
44750;SDS011;30477;48.224;11.470;2023-03-01T15:08:49;34.42;;;21.88;;
44750;SDS011;30477;48.224;11.470;2023-03-01T15:11:21;32.67;;;21.45;;
44750;SDS011;30477;48.224;11.470;2023-03-01T15:13:57;34.67;;;20.95;;
44750;SDS011;30477;48.224;11.470;2023-03-01T15:16:24;31.92;;;19.80;;
44750;SDS011;30477;48.224;11.470;2023-03-01T15:18:57;31.30;;;19.83;;
44750;SDS011;30477;48.224;11.470;2023-03-01T15:24:36;32.17;;;19.30;;
44750;SDS011;30477;48.224;11.470;2023-03-01T15:26:46;32.08;;;20.10;;
44750;SDS011;30477;48.224;11.470;2023-03-01T15:29:20;27.88;;;19.40;;
44750;SDS011;30477;48.224;11.470;2023-03-01T15:31:56;29.67;;;19.58;;
44750;SDS011;30477;48.224;11.470;2023-03-01T15:34:28;31.65;;;19.75;;
44750;SDS011;30477;48.224;11.470;2023-03-01T15:36:57;35.67;;;19.98;;
44750;SDS011;30477;48.224;11.470;2023-03-01T15:44:45;28.75;;;18.83;;
44750;SDS011;30477;48.224;11.470;2023-03-01T15:49:55;28.13;;;17.08;;
44750;SDS011;30477;48.224;11.470;2023-03-01T15:52:34;25.10;;;16.48;;
44750;SDS011;30477;48.224;11.470;2023-03-01T15:55:27;31.55;;;19.50;;
44750;SDS011;30477;48.224;11.470;2023-03-01T15:58:05;29.83;;;18.70;;
44750;SDS011;30477;48.224;11.470;2023-03-01T16:00:35;31.52;;;18.48;;
44750;SDS011;30477;48.224;11.470;2023-03-01T16:03:00;27.40;;;17.55;;
44750;SDS011;30477;48.224;11.470;2023-03-01T16:05:27;28.13;;;16.93;;
44750;SDS011;30477;48.224;11.470;2023-03-01T16:07:55;24.73;;;16.23;;
44750;SDS011;30477;48.224;11.470;2023-03-01T16:10:21;26.17;;;16.38;;
44750;SDS011;30477;48.224;11.470;2023-03-01T16:12:47;27.67;;;17.45;;
44750;SDS011;30477;48.224;11.470;2023-03-01T16:15:23;27.73;;;16.33;;
44750;SDS011;30477;48.224;11.470;2023-03-01T16:17:53;29.27;;;16.75;;
44750;SDS011;30477;48.224;11.470;2023-03-01T16:20:18;28.30;;;17.00;;
44750;SDS011;30477;48.224;11.470;2023-03-01T16:22:44;26.40;;;16.40;;
44750;SDS011;30477;48.224;11.470;2023-03-01T16:27:37;27.55;;;16.38;;
44750;SDS011;30477;48.224;11.470;2023-03-01T16:30:03;24.48;;;15.73;;
44750;SDS011;30477;48.224;11.470;2023-03-01T16:32:32;24.88;;;15.63;;
44750;SDS011;30477;48.224;11.470;2023-03-01T16:34:57;29.53;;;16.93;;
44750;SDS011;30477;48.224;11.470;2023-03-01T16:37:22;26.73;;;16.93;;
44750;SDS011;30477;48.224;11.470;2023-03-01T16:39:48;25.13;;;16.60;;
44750;SDS011;30477;48.224;11.470;2023-03-01T16:42:16;27.38;;;16.42;;
44750;SDS011;30477;48.224;11.470;2023-03-01T16:44:42;28.40;;;16.13;;
44750;SDS011;30477;48.224;11.470;2023-03-01T16:47:08;27.70;;;16.93;;
44750;SDS011;30477;48.224;11.470;2023-03-01T16:49:33;26.07;;;16.90;;
44750;SDS011;30477;48.224;11.470;2023-03-01T16:51:58;24.03;;;16.07;;
44750;SDS011;30477;48.224;11.470;2023-03-01T16:54:24;25.23;;;16.90;;
44750;SDS011;30477;48.224;11.470;2023-03-01T16:56:49;27.67;;;16.80;;
44750;SDS011;30477;48.224;11.470;2023-03-01T16:59:15;28.43;;;16.30;;
44750;SDS011;30477;48.224;11.470;2023-03-01T17:01:40;30.10;;;17.03;;
44750;SDS011;30477;48.224;11.470;2023-03-01T17:04:06;26.33;;;16.42;;
44750;SDS011;30477;48.224;11.470;2023-03-01T17:06:35;29.75;;;17.75;;